Time;durP1;ratioP1;P1;durP2;ratioP2;P2;SDS_P1;SDS_P2;PMS_P1;PMS_P2;Temp;Humidity;BMP_temperature;BMP_pressure;BME280_temperature;BME280_humidity;BME280_pressure;Samples;Min_cycle;Max_cycle;Signal;HPM_P1;HPM_P2
2023/03/10 00:00:55;;;;;;;96.35;62.90;;;358.80;2329.60;;;;;;4970882;28;20355;-55
2023/03/10 00:03:21;;;;;;;97.78;64.78;;;358.80;2329.60;;;;;;4971109;28;20030;-55
2023/03/10 00:05:47;;;;;;;171.82;100.15;;;358.70;2329.60;;;;;;4971382;28;20030;-55
2023/03/10 00:08:13;;;;;;;85.15;58.85;;;358.60;2329.60;;;;;;4970420;28;20054;-55
2023/03/10 00:10:38;;;;;;;241.13;140.13;;;358.50;2329.60;;;;;;4971059;28;20116;-55
2023/03/10 00:13:04;;;;;;;56.80;38.85;;;358.50;2329.60;;;;;;4952924;28;20066;-55
2023/03/10 00:15:30;;;;;;;54.63;36.05;;;358.50;2329.60;;;;;;4971261;28;20046;-55
2023/03/10 00:17:56;;;;;;;95.03;64.60;;;358.60;2329.60;;;;;;4970443;28;20031;-55
2023/03/10 00:20:22;;;;;;;163.50;115.80;;;358.50;2329.60;;;;;;4970528;28;20031;-55
2023/03/10 00:22:48;;;;;;;49.47;33.92;;;358.40;2329.60;;;;;;4970657;28;20034;-55
2023/03/10 00:25:14;;;;;;;32.22;22.33;;;358.50;2329.60;;;;;;4970617;28;20023;-55
2023/03/10 00:27:40;;;;;;;65.07;41.40;;;358.50;2329.60;;;;;;4971033;28;20023;-55
2023/03/10 00:30:07;;;;;;;45.50;30.77;;;358.50;2329.60;;;;;;4952737;28;20030;-52
2023/03/10 00:32:34;;;;;;;56.10;37.65;;;358.50;2329.60;;;;;;4970566;28;20063;-55
2023/03/10 00:35:00;;;;;;;40.45;25.73;;;358.50;2329.60;;;;;;4970716;28;20027;-54
2023/03/10 00:37:26;;;;;;;87.88;56.55;;;333.70;2329.60;;;;;;4970530;28;20019;-55
2023/03/10 00:39:52;;;;;;;130.63;74.05;;;333.70;2329.60;;;;;;4970411;28;20030;-54
2023/03/10 00:42:19;;;;;;;126.05;71.20;;;358.40;2329.60;;;;;;4970561;28;20035;-55
2023/03/10 00:44:45;;;;;;;55.70;35.63;;;358.50;2329.60;;;;;;4970489;28;20029;-56
2023/03/10 00:47:10;;;;;;;32.40;21.48;;;358.50;2329.60;;;;;;4967196;28;20024;-55
2023/03/10 00:49:36;;;;;;;36.15;23.27;;;358.50;2329.60;;;;;;4962206;28;20374;-56
2023/03/10 00:52:02;;;;;;;52.55;30.50;;;358.40;2329.60;;;;;;4974318;28;20022;-55
2023/03/10 00:54:27;;;;;;;50.20;34.70;;;358.40;2329.60;;;;;;4974410;28;20489;-55
2023/03/10 00:56:53;;;;;;;46.75;28.95;;;333.70;2329.60;;;;;;4973399;28;20120;-55
2023/03/10 00:59:19;;;;;;;100.07;65.30;;;333.70;2329.60;;;;;;4974325;28;20080;-56
2023/03/10 01:01:45;;;;;;;57.65;39.58;;;333.70;2329.60;;;;;;4973525;28;20047;-55
2023/03/10 01:04:13;;;;;;;35.53;23.35;;;333.50;2329.60;;;;;;4974120;28;20046;-55
2023/03/10 01:06:40;;;;;;;21.23;13.80;;;333.70;2329.60;;;;;;4973732;28;20481;-55
2023/03/10 01:09:06;;;;;;;19.40;12.45;;;333.70;2329.60;;;;;;4973644;28;20085;-55
2023/03/10 01:11:32;;;;;;;26.45;18.83;;;333.50;2329.60;;;;;;4974096;28;20022;-55
2023/03/10 01:14:00;;;;;;;78.55;47.05;;;333.50;2329.60;;;;;;4974018;28;20023;-54
2023/03/10 01:16:27;;;;;;;15.40;10.20;;;333.50;2329.60;;;;;;4973697;28;20077;-53
2023/03/10 01:18:52;;;;;;;14.30;7.35;;;333.60;2329.60;;;;;;4973771;28;20029;-55
2023/03/10 01:21:22;;;;;;;46.75;28.00;;;333.70;2329.60;;;;;;4973743;28;20043;-55
2023/03/10 01:23:48;;;;;;;203.25;132.25;;;333.60;2329.60;;;;;;4973777;28;20093;-55
2023/03/10 01:26:14;;;;;;;34.63;22.55;;;333.50;2329.60;;;;;;4973518;28;20111;-54
2023/03/10 01:28:40;;;;;;;29.77;20.35;;;333.40;2329.60;;;;;;4973786;28;20027;-55
2023/03/10 01:31:06;;;;;;;70.45;43.92;;;333.40;2329.60;;;;;;4973437;28;20113;-55
2023/03/10 01:33:38;;;;;;;18.00;11.82;;;333.40;2329.60;;;;;;4962875;28;20501;-55
2023/03/10 01:36:14;;;;;;;20.40;12.10;;;333.40;2329.60;;;;;;4959552;28;20124;-56
2023/03/10 01:38:39;;;;;;;18.65;11.10;;;333.40;2329.60;;;;;;4973088;28;20038;-54
2023/03/10 01:41:05;;;;;;;164.00;95.38;;;333.30;2329.60;;;;;;4973398;28;20043;-55
2023/03/10 01:43:31;;;;;;;74.50;43.10;;;333.40;2329.60;;;;;;4973681;28;20022;-55
2023/03/10 01:46:00;;;;;;;137.13;72.30;;;333.40;2329.60;;;;;;4973518;28;20018;-54
2023/03/10 01:48:29;;;;;;;208.52;111.00;;;333.60;2329.60;;;;;;4972890;28;20026;-54
2023/03/10 01:50:56;;;;;;;265.13;134.57;;;333.70;2329.60;;;;;;4973294;28;20034;-54
2023/03/10 01:53:23;;;;;;;219.65;105.13;;;358.40;2329.60;;;;;;4973131;28;20109;-56
2023/03/10 01:55:57;;;;;;;180.75;84.68;;;358.50;2329.60;;;;;;4973046;28;20489;-55
2023/03/10 01:58:28;;;;;;;14.75;7.40;;;358.50;2329.60;;;;;;4972758;28;20465;-55
2023/03/10 02:00:54;;;;;;;9.60;4.93;;;358.70;2329.60;;;;;;4962937;28;20486;-55
2023/03/10 02:03:19;;;;;;;44.20;24.77;;;358.60;2329.60;;;;;;4966728;28;20039;-54
2023/03/10 02:05:50;;;;;;;212.82;125.53;;;358.70;2329.60;;;;;;4963619;28;20532;-55
2023/03/10 02:08:17;;;;;;;30.02;17.65;;;358.60;2329.60;;;;;;4972589;28;20473;-54
2023/03/10 02:10:44;;;;;;;33.42;21.67;;;358.50;2329.60;;;;;;4972970;28;20018;-55
2023/03/10 02:13:10;;;;;;;63.40;39.00;;;333.50;2329.60;;;;;;4972860;28;20027;-55
2023/03/10 02:15:36;;;;;;;60.00;39.63;;;333.40;2329.60;;;;;;4972815;28;20023;-55
2023/03/10 02:18:05;;;;;;;33.83;21.40;;;333.40;2329.60;;;;;;4972687;28;20030;-55
2023/03/10 02:20:55;;;;;;;26.58;19.05;;;333.20;2329.60;;;;;;4972897;28;20027;-55
2023/03/10 02:23:39;;;;;;;64.10;49.22;;;333.20;2329.60;;;;;;4960785;28;20081;-55
2023/03/10 02:26:40;;;;;;;59.72;37.20;;;333.10;2329.60;;;;;;4972202;28;20027;-55
2023/03/10 02:29:11;;;;;;;38.60;23.15;;;333.30;2329.60;;;;;;4972579;28;20049;-53
2023/03/10 02:31:37;;;;;;;42.85;26.92;;;333.30;2329.60;;;;;;4972597;28;20482;-55
2023/03/10 02:34:05;;;;;;;122.53;72.70;;;333.40;2329.60;;;;;;4972818;28;20118;-54
2023/03/10 02:36:31;;;;;;;82.72;51.15;;;333.50;2329.60;;;;;;4972779;28;20037;-54
2023/03/10 02:38:57;;;;;;;91.90;55.67;;;333.60;2329.60;;;;;;4972385;28;20046;-55
2023/03/10 02:41:38;;;;;;;29.38;17.45;;;333.70;2329.60;;;;;;4972123;28;20499;-55
2023/03/10 02:44:07;;;;;;;35.30;24.55;;;333.60;2329.60;;;;;;4971959;28;20043;-55
2023/03/10 02:46:33;;;;;;;34.40;24.17;;;333.40;2329.60;;;;;;4972468;28;20031;-55
2023/03/10 02:49:01;;;;;;;33.97;19.45;;;333.30;2329.60;;;;;;4972002;28;20043;-55
2023/03/10 02:51:31;;;;;;;24.30;13.90;;;333.30;2329.60;;;;;;4972099;28;20027;-55
2023/03/10 02:53:59;;;;;;;66.95;37.30;;;333.30;2329.60;;;;;;4972000;28;20054;-55
2023/03/10 02:56:25;;;;;;;24.20;15.18;;;333.30;2329.60;;;;;;4971944;28;20097;-55
2023/03/10 02:58:51;;;;;;;45.65;28.52;;;333.50;2329.60;;;;;;4971906;28;20109;-55
2023/03/10 03:01:17;;;;;;;38.55;24.90;;;333.50;2329.60;;;;;;4971851;28;20043;-55
2023/03/10 03:03:42;;;;;;;21.52;15.43;;;333.50;2329.60;;;;;;4971940;28;20015;-54
2023/03/10 03:06:08;;;;;;;10.95;5.40;;;333.60;2329.60;;;;;;4971918;28;20461;-55
2023/03/10 03:08:34;;;;;;;9.73;5.53;;;333.50;2329.60;;;;;;4971657;28;20027;-56
2023/03/10 03:11:00;;;;;;;25.58;12.55;;;333.40;2329.60;;;;;;4971983;28;20019;-54
2023/03/10 03:13:26;;;;;;;10.60;7.45;;;333.50;2329.60;;;;;;4971387;28;20035;-55
2023/03/10 03:15:51;;;;;;;10.15;7.10;;;333.60;2329.60;;;;;;4971666;28;20031;-55
2023/03/10 03:18:17;;;;;;;9.90;5.97;;;333.60;2329.60;;;;;;4971699;28;20114;-55
2023/03/10 03:20:43;;;;;;;8.30;5.15;;;333.50;2329.60;;;;;;4971658;28;20070;-55
2023/03/10 03:23:10;;;;;;;7.53;5.28;;;333.40;2329.60;;;;;;4971401;28;20042;-55
2023/03/10 03:25:38;;;;;;;12.57;5.97;;;333.40;2329.60;;;;;;4971532;28;20469;-54
2023/03/10 03:28:05;;;;;;;39.67;25.35;;;333.30;2329.60;;;;;;4971066;28;20026;-55
2023/03/10 03:30:31;;;;;;;69.00;45.38;;;333.10;2329.60;;;;;;4971502;28;20026;-55
2023/03/10 03:32:57;;;;;;;75.32;54.33;;;332.90;2329.60;;;;;;4971810;28;20038;-55
2023/03/10 03:35:26;;;;;;;74.25;50.78;;;308.00;2304.00;;;;;;4971372;28;20474;-55
2023/03/10 03:37:53;;;;;;;73.10;45.50;;;307.70;2304.00;;;;;;4970914;28;20473;-55
2023/03/10 03:40:19;;;;;;;51.05;37.33;;;307.80;2304.00;;;;;;4971387;28;20030;-56
2023/03/10 03:42:48;;;;;;;32.40;21.52;;;307.90;2304.00;;;;;;4971105;28;20035;-55
2023/03/10 03:45:16;;;;;;;51.20;32.70;;;307.80;2304.00;;;;;;4971017;28;20030;-54
2023/03/10 03:47:42;;;;;;;50.63;33.47;;;307.90;2304.00;;;;;;4970888;28;20030;-54
2023/03/10 03:50:10;;;;;;;62.95;43.22;;;307.90;2304.00;;;;;;4953540;28;20051;-55
2023/03/10 03:52:36;;;;;;;68.47;43.50;;;307.90;2304.00;;;;;;4970890;28;20113;-54
2023/03/10 03:55:02;;;;;;;55.05;40.45;;;308.00;2304.00;;;;;;4971070;28;20157;-54
2023/03/10 03:57:28;;;;;;;56.25;38.30;;;308.00;2304.00;;;;;;4971146;28;20113;-55
2023/03/10 03:59:54;;;;;;;41.78;30.63;;;307.90;2304.00;;;;;;4970603;28;20490;-53
2023/03/10 04:02:19;;;;;;;33.50;22.70;;;307.90;2304.00;;;;;;4971174;28;20039;-54
2023/03/10 04:04:45;;;;;;;48.92;32.13;;;307.80;2304.00;;;;;;4970567;28;20381;-54
2023/03/10 04:07:11;;;;;;;39.97;27.15;;;307.70;2304.00;;;;;;4970697;28;20504;-55
2023/03/10 04:09:41;;;;;;;40.67;29.05;;;307.70;2304.00;;;;;;4971035;28;20023;-53
2023/03/10 04:12:08;;;;;;;40.50;29.95;;;307.70;2304.00;;;;;;4970840;28;20023;-53
2023/03/10 04:14:35;;;;;;;39.33;25.80;;;307.60;2304.00;;;;;;4955842;28;20023;-54
2023/03/10 04:17:01;;;;;;;27.95;18.95;;;307.60;2304.00;;;;;;4952031;28;20082;-52
2023/03/10 04:19:27;;;;;;;25.55;18.17;;;307.60;2304.00;;;;;;4952115;28;20027;-51
2023/03/10 04:21:52;;;;;;;21.48;14.70;;;307.60;2304.00;;;;;;4960252;28;20414;-54
2023/03/10 04:24:18;;;;;;;19.60;12.68;;;307.60;2304.00;;;;;;4973224;28;20101;-54
2023/03/10 04:26:45;;;;;;;34.80;22.17;;;307.60;2304.00;;;;;;4966516;28;20086;-54
2023/03/10 04:29:11;;;;;;;27.73;18.33;;;307.50;2304.00;;;;;;4970377;28;20106;-54
2023/03/10 04:31:37;;;;;;;27.30;16.92;;;307.50;2304.00;;;;;;4974738;28;20481;-55
2023/03/10 04:34:03;;;;;;;15.73;10.98;;;307.50;2304.00;;;;;;4961532;28;20082;-55
2023/03/10 04:36:28;;;;;;;20.75;13.65;;;307.50;2304.00;;;;;;4974827;28;20027;-54
2023/03/10 04:38:54;;;;;;;17.75;11.18;;;307.60;2304.00;;;;;;4974278;28;20473;-54
2023/03/10 04:41:20;;;;;;;13.60;7.57;;;307.60;2304.00;;;;;;4974633;28;20038;-55
2023/03/10 04:43:46;;;;;;;14.82;9.98;;;307.70;2304.00;;;;;;4974241;28;20022;-55
2023/03/10 04:46:11;;;;;;;16.35;9.52;;;307.80;2304.00;;;;;;4974469;28;20045;-55
2023/03/10 04:48:37;;;;;;;12.85;7.63;;;307.80;2304.00;;;;;;4974525;28;20073;-54
2023/03/10 04:51:07;;;;;;;13.13;8.45;;;307.90;2304.00;;;;;;4974556;28;20579;-56
2023/03/10 04:53:34;;;;;;;14.70;10.98;;;307.90;2304.00;;;;;;4974198;28;20018;-55
2023/03/10 04:56:01;;;;;;;14.15;10.55;;;307.90;2304.00;;;;;;4974356;28;20034;-53
2023/03/10 04:58:27;;;;;;;48.30;32.42;;;307.90;2304.00;;;;;;4974419;28;20023;-55
2023/03/10 05:00:53;;;;;;;66.45;40.67;;;307.80;2304.00;;;;;;4973927;28;20046;-53
2023/03/10 05:03:19;;;;;;;85.68;51.65;;;307.70;2304.00;;;;;;4974025;28;20035;-54
2023/03/10 05:05:44;;;;;;;82.50;55.45;;;307.40;2304.00;;;;;;4973865;28;20462;-55
2023/03/10 05:08:10;;;;;;;87.65;54.50;;;307.20;2304.00;;;;;;4973885;28;20026;-54
2023/03/10 05:10:40;;;;;;;86.80;56.53;;;282.50;2278.40;;;;;;4974253;28;20026;-54
2023/03/10 05:13:06;;;;;;;92.95;58.70;;;282.30;2278.40;;;;;;4973754;28;20022;-55
2023/03/10 05:15:35;;;;;;;67.57;43.78;;;282.30;2278.40;;;;;;4974247;28;20082;-54
2023/03/10 05:18:01;;;;;;;55.70;36.08;;;282.30;2278.40;;;;;;4974284;28;20027;-55
2023/03/10 05:20:26;;;;;;;48.30;32.80;;;282.30;2278.40;;;;;;4973967;28;20057;-55
2023/03/10 05:22:52;;;;;;;44.97;31.58;;;282.20;2278.40;;;;;;4973781;28;20031;-54
2023/03/10 05:25:18;;;;;;;31.30;20.20;;;282.20;2278.40;;;;;;4973998;28;20065;-53
2023/03/10 05:27:44;;;;;;;30.27;18.33;;;282.10;2278.40;;;;;;4973681;28;20027;-55
2023/03/10 05:30:13;;;;;;;30.17;21.65;;;282.20;2278.40;;;;;;4973956;28;20027;-54
2023/03/10 05:32:39;;;;;;;48.58;31.52;;;282.30;2278.40;;;;;;4973820;28;20065;-54
2023/03/10 05:35:05;;;;;;;38.65;25.05;;;282.40;2278.40;;;;;;4972969;28;20031;-54
2023/03/10 05:37:32;;;;;;;89.53;52.38;;;282.50;2278.40;;;;;;4973345;28;20027;-55
2023/03/10 05:39:58;;;;;;;36.67;25.58;;;307.20;2304.00;;;;;;4956911;28;20470;-53
2023/03/10 05:42:23;;;;;;;51.30;41.17;;;282.50;2278.40;;;;;;4968782;28;20121;-51
2023/03/10 05:44:49;;;;;;;24.45;14.73;;;307.20;2304.00;;;;;;4973786;28;20106;-54
2023/03/10 05:47:17;;;;;;;70.47;42.88;;;307.70;2304.00;;;;;;4955731;28;20086;-54
2023/03/10 05:49:43;;;;;;;22.90;14.35;;;307.80;2304.00;;;;;;4965079;28;20053;-54
2023/03/10 05:52:09;;;;;;;277.88;167.60;;;332.80;2329.60;;;;;;4972747;28;20066;-54
2023/03/10 05:54:35;;;;;;;64.22;40.25;;;333.00;2329.60;;;;;;4973031;28;20031;-54
2023/03/10 05:57:01;;;;;;;12.18;8.10;;;333.20;2329.60;;;;;;4955782;28;20027;-54
2023/03/10 05:59:27;;;;;;;16.67;9.45;;;333.50;2329.60;;;;;;4973451;28;20498;-54
2023/03/10 06:01:53;;;;;;;23.75;12.98;;;333.60;2329.60;;;;;;4972871;28;20472;-53
2023/03/10 06:04:18;;;;;;;25.05;13.93;;;333.70;2329.60;;;;;;4962417;28;20225;-54
2023/03/10 06:06:44;;;;;;;18.83;10.75;;;358.40;2329.60;;;;;;4958140;28;20057;-53
2023/03/10 06:09:10;;;;;;;23.17;14.65;;;358.50;2329.60;;;;;;4973067;28;20027;-54
2023/03/10 06:11:35;;;;;;;39.20;23.55;;;358.60;2329.60;;;;;;4973126;28;20031;-53
2023/03/10 06:14:03;;;;;;;10.95;8.15;;;358.70;2329.60;;;;;;4973253;28;20454;-53
2023/03/10 06:16:29;;;;;;;31.90;21.58;;;358.80;2329.60;;;;;;4973103;28;20030;-54
2023/03/10 06:18:55;;;;;;;18.40;13.35;;;358.90;2329.60;;;;;;4973214;28;20102;-55
2023/03/10 06:21:22;;;;;;;13.15;9.38;;;359.00;2329.60;;;;;;4972570;28;20027;-55
2023/03/10 06:23:47;;;;;;;15.38;9.45;;;359.00;2329.60;;;;;;4972714;28;20034;-54
2023/03/10 06:26:16;;;;;;;14.00;10.18;;;359.00;2329.60;;;;;;4972444;28;20038;-55
2023/03/10 06:28:43;;;;;;;11.07;7.20;;;359.10;2329.60;;;;;;4973085;28;20433;-55
2023/03/10 06:31:23;;;;;;;13.15;9.60;;;359.10;2329.60;;;;;;4972548;28;20457;-55
2023/03/10 06:33:49;;;;;;;11.77;10.57;;;359.20;2329.60;;;;;;4972538;28;20082;-56
2023/03/10 06:36:16;;;;;;;11.05;7.80;;;359.20;2329.60;;;;;;4972456;28;20101;-55
2023/03/10 06:38:42;;;;;;;17.48;12.05;;;359.30;2329.60;;;;;;4972058;28;20022;-55
2023/03/10 06:41:08;;;;;;;12.95;9.82;;;359.30;2329.60;;;;;;4972311;28;20504;-55
2023/03/10 06:43:35;;;;;;;39.17;27.20;;;359.30;2329.60;;;;;;4972034;28;20023;-55
2023/03/10 06:46:07;;;;;;;33.55;25.35;;;359.20;2329.60;;;;;;4972467;28;20019;-55
2023/03/10 06:48:34;;;;;;;33.95;24.05;;;359.30;2329.60;;;;;;4971116;28;20377;-54
2023/03/10 06:50:59;;;;;;;34.92;26.40;;;359.20;2329.60;;;;;;4972537;28;20035;-55
2023/03/10 06:53:28;;;;;;;33.88;26.20;;;359.20;2329.60;;;;;;4971838;28;20029;-54
2023/03/10 06:56:03;;;;;;;30.50;23.20;;;359.20;2329.60;;;;;;4972245;28;20030;-53
2023/03/10 06:58:32;;;;;;;49.83;37.00;;;359.10;2329.60;;;;;;4972337;28;20110;-55
2023/03/10 07:00:58;;;;;;;52.78;39.42;;;359.10;2329.60;;;;;;4971913;28;20039;-55
2023/03/10 07:03:25;;;;;;;125.57;90.82;;;359.10;2329.60;;;;;;4972109;28;20086;-54
2023/03/10 07:05:52;;;;;;;165.48;124.25;;;358.90;2329.60;;;;;;4971935;28;20102;-54
2023/03/10 07:08:18;;;;;;;201.27;164.60;;;358.50;2329.60;;;;;;4971880;28;20054;-55
2023/03/10 07:10:44;;;;;;;122.88;86.93;;;358.50;2329.60;;;;;;4971731;28;20031;-55
2023/03/10 07:13:14;;;;;;;81.53;56.97;;;358.50;2329.60;;;;;;4971699;28;20033;-55
2023/03/10 07:15:40;;;;;;;43.08;29.23;;;333.70;2329.60;;;;;;4971950;28;20478;-55
2023/03/10 07:18:06;;;;;;;100.90;76.78;;;358.40;2329.60;;;;;;4971447;28;20025;-56
2023/03/10 07:20:31;;;;;;;154.68;120.22;;;358.50;2329.60;;;;;;4982912;28;20030;-54
2023/03/10 07:22:57;;;;;;;132.38;94.22;;;358.50;2329.60;;;;;;4973651;28;20066;-55
2023/03/10 07:25:24;;;;;;;131.88;100.65;;;358.50;2329.60;;;;;;4971606;28;20039;-54
2023/03/10 07:27:50;;;;;;;101.63;78.07;;;358.50;2329.60;;;;;;4971271;28;20027;-54
2023/03/10 07:30:16;;;;;;;57.03;41.28;;;358.70;2329.60;;;;;;4969247;28;20035;-53
2023/03/10 07:32:42;;;;;;;49.40;36.85;;;358.70;2329.60;;;;;;4960174;28;20042;-65
2023/03/10 07:35:08;;;;;;;30.15;25.30;;;358.70;2329.60;;;;;;4971230;28;20035;-62
2023/03/10 07:37:37;;;;;;;73.20;51.53;;;358.70;2329.60;;;;;;4971890;28;20033;-64
2023/03/10 07:40:05;;;;;;;228.07;180.15;;;358.50;2329.60;;;;;;4971499;28;20105;-64
2023/03/10 07:42:31;;;;;;;83.35;63.00;;;358.50;2329.60;;;;;;4971199;28;20038;-63
2023/03/10 07:44:57;;;;;;;116.60;82.80;;;358.50;2329.60;;;;;;4971418;28;20093;-63
2023/03/10 07:47:22;;;;;;;146.27;101.43;;;358.50;2329.60;;;;;;4971368;28;20023;-64
2023/03/10 07:49:48;;;;;;;152.02;104.88;;;333.60;2329.60;;;;;;4958567;28;20070;-63
2023/03/10 07:52:14;;;;;;;148.45;100.90;;;333.60;2329.60;;;;;;4971061;28;20037;-64
2023/03/10 07:54:40;;;;;;;122.03;91.95;;;333.70;2329.60;;;;;;4970913;28;20596;-65
2023/03/10 07:57:06;;;;;;;122.95;94.28;;;358.40;2329.60;;;;;;4970691;28;20359;-63
2023/03/10 07:59:32;;;;;;;73.28;47.80;;;358.50;2329.60;;;;;;4970554;28;20044;-64
2023/03/10 08:01:57;;;;;;;52.65;36.90;;;358.70;2329.60;;;;;;4971331;28;20469;-63
2023/03/10 08:04:23;;;;;;;47.20;31.42;;;359.00;2329.60;;;;;;4970731;28;20054;-64
2023/03/10 08:06:49;;;;;;;49.85;28.48;;;359.20;2329.60;;;;;;4971362;28;20030;-64
2023/03/10 08:09:14;;;;;;;55.28;33.13;;;359.30;2329.60;;;;;;4970847;28;20098;-64
2023/03/10 08:11:40;;;;;;;42.95;29.00;;;359.30;2329.60;;;;;;4971307;28;20038;-63
2023/03/10 08:14:06;;;;;;;36.25;24.33;;;359.30;2329.60;;;;;;4971053;28;20092;-63
2023/03/10 08:16:31;;;;;;;76.75;48.55;;;384.00;2329.60;;;;;;4971174;28;20173;-63
2023/03/10 08:18:57;;;;;;;44.17;32.63;;;384.00;2329.60;;;;;;4971270;28;20027;-62
2023/03/10 08:21:23;;;;;;;34.75;26.95;;;384.00;2329.60;;;;;;4970744;28;20070;-63
2023/03/10 08:23:48;;;;;;;50.28;38.03;;;384.10;2329.60;;;;;;4970942;28;20045;-64
2023/03/10 08:26:16;;;;;;;39.25;28.33;;;384.10;2329.60;;;;;;4970735;28;20027;-64
2023/03/10 08:28:43;;;;;;;20.10;15.85;;;384.10;2329.60;;;;;;4971062;28;20107;-64
2023/03/10 08:31:11;;;;;;;31.80;28.33;;;384.10;2329.60;;;;;;4970786;28;20496;-64
2023/03/10 08:33:37;;;;;;;27.48;20.13;;;384.10;2329.60;;;;;;4970736;28;20031;-65
2023/03/10 08:36:09;;;;;;;16.92;13.18;;;384.10;2329.60;;;;;;4970585;28;20027;-64
2023/03/10 08:38:35;;;;;;;34.90;28.27;;;384.10;2329.60;;;;;;4970514;28;20031;-64
2023/03/10 08:41:11;;;;;;;15.52;12.05;;;384.00;2329.60;;;;;;4970977;28;20034;-63
2023/03/10 08:43:37;;;;;;;9.50;6.50;;;384.00;2329.60;;;;;;4970965;28;20436;-64
2023/03/10 08:46:03;;;;;;;15.77;7.93;;;359.30;2329.60;;;;;;4970694;28;20019;-64
2023/03/10 08:48:29;;;;;;;15.27;10.60;;;359.30;2329.60;;;;;;4970543;28;20035;-63
2023/03/10 08:50:56;;;;;;;16.60;11.40;;;359.20;2329.60;;;;;;4970761;28;20014;-64
2023/03/10 08:53:22;;;;;;;20.73;11.32;;;359.20;2329.60;;;;;;4970425;28;20023;-64
2023/03/10 08:55:48;;;;;;;26.15;13.55;;;359.10;2329.60;;;;;;4970605;28;20027;-63
2023/03/10 08:58:14;;;;;;;21.65;14.15;;;359.00;2329.60;;;;;;4970480;28;20046;-62
2023/03/10 09:00:41;;;;;;;15.80;10.38;;;359.00;2329.60;;;;;;4970509;28;20031;-64
2023/03/10 09:03:09;;;;;;;26.92;12.40;;;359.00;2329.60;;;;;;4970280;28;20039;-63
2023/03/10 09:05:36;;;;;;;33.95;21.05;;;359.10;2329.60;;;;;;4970268;28;20061;-64
2023/03/10 09:08:02;;;;;;;44.72;21.23;;;359.10;2329.60;;;;;;4970827;28;20046;-63
2023/03/10 09:10:28;;;;;;;31.88;20.77;;;359.20;2329.60;;;;;;4971661;28;20453;-63
2023/03/10 09:12:54;;;;;;;32.25;20.38;;;359.20;2329.60;;;;;;4973678;28;20153;-64
2023/03/10 09:15:20;;;;;;;25.70;15.13;;;359.20;2329.60;;;;;;4974143;28;20058;-63
2023/03/10 09:17:46;;;;;;;9.70;6.97;;;384.00;2329.60;;;;;;4973783;28;20429;-62
2023/03/10 09:20:14;;;;;;;9.88;7.30;;;359.30;2329.60;;;;;;4974330;28;20106;-63
2023/03/10 09:22:40;;;;;;;10.38;6.45;;;359.00;2329.60;;;;;;4973813;28;20050;-62
2023/03/10 09:25:07;;;;;;;10.88;6.45;;;359.00;2329.60;;;;;;4974077;28;20023;-63
2023/03/10 09:27:32;;;;;;;12.32;6.82;;;358.90;2329.60;;;;;;4973974;28;20049;-64
2023/03/10 09:29:58;;;;;;;19.33;12.13;;;359.00;2329.60;;;;;;4974112;28;20465;-64
2023/03/10 09:32:24;;;;;;;14.48;8.52;;;359.00;2329.60;;;;;;4973331;28;20477;-64
2023/03/10 09:34:50;;;;;;;11.98;8.95;;;359.10;2329.60;;;;;;4973881;28;20026;-63
2023/03/10 09:37:15;;;;;;;11.02;8.57;;;359.20;2329.60;;;;;;4973727;28;20062;-63
2023/03/10 09:39:41;;;;;;;19.05;15.43;;;359.30;2329.60;;;;;;4973811;28;20469;-63
2023/03/10 09:42:37;;;;;;;15.52;13.93;;;384.00;2329.60;;;;;;4973104;28;20043;-63
2023/03/10 09:45:16;;;;;;;14.73;9.45;;;384.30;2329.60;;;;;;4973425;28;20054;-64
2023/03/10 09:48:04;;;;;;;9.68;7.30;;;384.30;2329.60;;;;;;4973364;28;20022;-64
2023/03/10 09:50:36;;;;;;;12.90;6.45;;;384.10;2329.60;;;;;;4973236;28;20050;-64
2023/03/10 09:53:20;;;;;;;10.38;7.00;;;384.20;2329.60;;;;;;4973433;28;20034;-63
2023/03/10 09:55:46;;;;;;;;;;;384.20;2329.60;;;;;;4973631;28;20029;-63
2023/03/10 09:58:26;;;;;;;9.00;6.15;;;384.20;2329.60;;;;;;4973101;28;20264;-63
2023/03/10 10:00:53;;;;;;;8.45;5.50;;;384.40;2329.60;;;;;;4973012;28;20069;-64
2023/03/10 10:03:21;;;;;;;8.05;5.97;;;384.30;2329.60;;;;;;4973047;28;20406;-62
2023/03/10 10:05:52;;;;;;;42.55;36.13;;;384.10;2329.60;;;;;;4973069;28;20064;-63
2023/03/10 10:08:42;;;;;;;32.63;25.27;;;359.10;2329.60;;;;;;4972868;28;20019;-63
2023/03/10 10:11:14;;;;;;;68.63;43.45;;;359.20;2329.60;;;;;;4973126;28;20072;-63
2023/03/10 10:13:41;;;;;;;64.47;44.97;;;359.20;2329.60;;;;;;4972961;28;20031;-63
2023/03/10 10:16:29;;;;;;;87.90;68.38;;;359.30;2329.60;;;;;;4972355;28;20027;-63
2023/03/10 10:18:58;;;;;;;83.95;59.72;;;359.30;2329.60;;;;;;4972829;28;20027;-62
2023/03/10 10:21:33;;;;;;;74.05;50.70;;;359.20;2329.60;;;;;;4972675;28;20394;-64
2023/03/10 10:24:00;;;;;;;86.90;59.70;;;359.20;2329.60;;;;;;4972963;28;20429;-63
2023/03/10 10:26:26;;;;;;;52.58;38.15;;;359.30;2329.60;;;;;;4972539;28;20074;-64
2023/03/10 10:29:21;;;;;;;28.58;22.08;;;359.20;2329.60;;;;;;4972521;28;20028;-63
2023/03/10 10:32:08;;;;;;;27.02;19.83;;;359.10;2329.60;;;;;;4963485;28;20043;-62
2023/03/10 10:34:36;;;;;;;29.48;20.90;;;359.00;2329.60;;;;;;4972252;28;20457;-63
2023/03/10 10:37:29;;;;;;;20.75;13.50;;;358.60;2329.60;;;;;;4972541;28;20489;-63
2023/03/10 10:39:57;;;;;;;21.35;11.82;;;333.70;2329.60;;;;;;4972813;28;20037;-63
2023/03/10 10:42:26;;;;;;;28.02;19.48;;;333.70;2329.60;;;;;;4972232;28;20126;-63
2023/03/10 10:45:01;;;;;;;18.52;12.70;;;358.50;2329.60;;;;;;4972304;28;20073;-64
2023/03/10 10:47:33;;;;;;;17.92;11.80;;;333.70;2329.60;;;;;;4972415;28;20393;-63
2023/03/10 10:50:19;;;;;;;19.50;14.10;;;333.50;2329.60;;;;;;4972365;28;20069;-62
2023/03/10 10:52:49;;;;;;;52.67;42.55;;;333.40;2329.60;;;;;;4972071;28;20107;-63
2023/03/10 10:55:26;;;;;;;33.40;26.15;;;333.30;2329.60;;;;;;4972322;28;20440;-63
2023/03/10 10:57:55;;;;;;;39.85;29.23;;;333.20;2329.60;;;;;;4971892;28;20023;-63
2023/03/10 11:00:29;;;;;;;32.40;27.17;;;333.20;2329.60;;;;;;4959178;28;20031;-62
2023/03/10 11:02:55;;;;;;;27.77;19.77;;;333.10;2329.60;;;;;;4971403;28;20038;-63
2023/03/10 11:05:34;;;;;;;32.30;25.73;;;333.20;2329.60;;;;;;4972163;28;20026;-63
2023/03/10 11:08:32;;;;;;;25.98;21.15;;;333.30;2329.60;;;;;;4971834;28;20154;-62
2023/03/10 11:11:16;;;;;;;23.70;17.33;;;333.50;2329.60;;;;;;4893408;29;20128;-61
2023/03/10 11:14:04;;;;;;;23.55;18.55;;;333.70;2329.60;;;;;;4893351;29;20060;-63
2023/03/10 11:16:51;;;;;;;20.70;15.65;;;358.50;2329.60;;;;;;4893475;29;20033;-62
2023/03/10 11:20:00;;;;;;;22.63;17.35;;;358.40;2329.60;;;;;;4893069;29;20033;-62
2023/03/10 11:22:35;;;;;;;27.85;20.13;;;358.50;2329.60;;;;;;4892917;29;20048;-63
2023/03/10 11:25:35;;;;;;;21.98;17.85;;;358.50;2329.60;;;;;;4893452;29;20017;-62
2023/03/10 11:28:10;;;;;;;18.17;12.57;;;358.40;2329.60;;;;;;4893074;29;20035;-62
2023/03/10 11:30:37;;;;;;;21.63;15.77;;;358.40;2329.60;;;;;;4892758;29;20387;-63
2023/03/10 11:33:33;;;;;;;22.88;17.27;;;358.50;2329.60;;;;;;4892572;29;20115;-65
2023/03/10 11:36:23;;;;;;;24.52;17.00;;;358.50;2329.60;;;;;;4893113;29;20542;-62
2023/03/10 11:38:54;;;;;;;118.45;84.07;;;358.80;2329.60;;;;;;4893608;29;20468;-62
2023/03/10 11:41:29;;;;;;;71.68;46.58;;;359.00;2329.60;;;;;;4903891;29;20044;-63
2023/03/10 11:44:08;;;;;;;42.92;35.47;;;359.00;2329.60;;;;;;4892577;29;20053;-63
2023/03/10 11:47:06;;;;;;;44.30;31.45;;;358.70;2329.60;;;;;;4903798;29;20035;-62
2023/03/10 11:49:37;;;;;;;57.90;43.75;;;358.90;2329.60;;;;;;4923914;28;20494;-64
2023/03/10 11:52:11;;;;;;;79.75;64.57;;;358.80;2329.60;;;;;;4971026;28;20120;-64
2023/03/10 11:54:49;;;;;;;90.25;72.97;;;358.70;2329.60;;;;;;4971218;28;20058;-62
2023/03/10 11:57:19;;;;;;;73.60;57.08;;;359.10;2329.60;;;;;;4970728;28;20027;-63
2023/03/10 11:59:54;;;;;;;59.30;48.78;;;359.30;2329.60;;;;;;4970739;28;20117;-62
2023/03/10 12:02:29;;;;;;;63.95;51.25;;;384.10;2329.60;;;;;;4971156;28;20105;-62
2023/03/10 12:05:09;;;;;;;76.72;63.33;;;384.30;2329.60;;;;;;4970772;28;20069;-63
2023/03/10 12:07:45;;;;;;;120.75;84.70;;;384.60;2329.60;;;;;;4971074;28;20030;-63